Time;durP1;ratioP1;P1;durP2;ratioP2;P2;SDS_P1;SDS_P2;PMS_P1;PMS_P2;Temp;Humidity;BMP_temperature;BMP_pressure;BME280_temperature;BME280_humidity;BME280_pressure;Samples;Min_cycle;Max_cycle;Signal;HPM_P1;HPM_P2
2022/11/16 00:02:16;;;;;;;22.13;14.97;;;9.10;99.90;;;;;;5012534;28;20208;-56
2022/11/16 00:04:43;;;;;;;22.30;15.87;;;9.00;99.90;;;;;;5018965;28;20322;-58
2022/11/16 00:07:11;;;;;;;22.07;15.33;;;9.00;99.90;;;;;;5022315;28;20199;-57
2022/11/16 00:09:38;;;;;;;21.37;15.27;;;8.90;99.90;;;;;;5013175;28;20223;-53
2022/11/16 00:12:08;;;;;;;22.70;16.90;;;8.90;99.90;;;;;;5026181;28;20210;-57
2022/11/16 00:14:36;;;;;;;23.67;15.43;;;8.90;99.90;;;;;;5008388;28;20612;-56
2022/11/16 00:17:05;;;;;;;23.73;16.13;;;8.90;99.90;;;;;;5026627;28;20211;-56
2022/11/16 00:19:32;;;;;;;26.97;16.83;;;8.90;99.90;;;;;;5022629;28;20695;-57
2022/11/16 00:21:58;;;;;;;28.53;17.70;;;8.80;99.90;;;;;;5026410;28;20214;-54
2022/11/16 00:24:25;;;;;;;25.17;15.97;;;8.80;99.90;;;;;;5018104;28;20222;-57
2022/11/16 00:26:55;;;;;;;25.80;16.63;;;8.80;99.90;;;;;;5025413;28;20200;-53
2022/11/16 00:29:24;;;;;;;25.03;16.67;;;8.80;99.90;;;;;;5016304;28;20199;-56
2022/11/16 00:31:52;;;;;;;23.30;16.63;;;8.80;99.90;;;;;;5018689;28;21027;-57
2022/11/16 00:34:22;;;;;;;24.27;16.90;;;8.80;99.90;;;;;;5023675;28;20220;-56
2022/11/16 00:36:49;;;;;;;24.47;16.70;;;8.80;99.90;;;;;;5023248;28;20337;-53
2022/11/16 00:39:18;;;;;;;25.33;17.70;;;8.80;99.90;;;;;;5026172;28;20204;-55
2022/11/16 00:41:46;;;;;;;24.27;16.57;;;8.80;99.90;;;;;;5033810;28;20205;-53
2022/11/16 00:44:13;;;;;;;23.30;16.67;;;8.70;99.90;;;;;;5026441;28;20230;-56
2022/11/16 00:46:41;;;;;;;25.03;16.47;;;8.70;99.90;;;;;;5007974;28;20203;-56
2022/11/16 00:49:09;;;;;;;24.43;16.17;;;8.70;99.90;;;;;;5023788;28;20204;-54
2022/11/16 00:51:37;;;;;;;25.57;16.67;;;8.70;99.90;;;;;;5020624;28;20904;-55
2022/11/16 00:54:06;;;;;;;23.73;16.53;;;8.70;99.90;;;;;;5024484;28;20231;-55
2022/11/16 00:56:35;;;;;;;23.30;16.10;;;8.60;99.90;;;;;;5001378;28;20322;-55
2022/11/16 00:59:02;;;;;;;25.33;16.87;;;8.60;99.90;;;;;;5026224;28;20829;-55
2022/11/16 01:01:29;;;;;;;21.93;15.53;;;8.60;99.90;;;;;;5000582;28;20224;-55
2022/11/16 01:03:56;;;;;;;24.30;16.70;;;8.60;99.90;;;;;;5024008;28;20719;-54
2022/11/16 01:06:23;;;;;;;22.07;15.10;;;8.60;99.90;;;;;;5022845;28;20699;-53
2022/11/16 01:08:52;;;;;;;24.13;16.53;;;8.50;99.90;;;;;;5023380;28;20200;-57
2022/11/16 01:14:05;;;;;;;25.63;16.70;;;8.50;99.90;;;;;;5025569;28;20211;-57
2022/11/16 01:16:32;;;;;;;21.67;15.93;;;8.50;99.90;;;;;;5007270;28;20254;-57
2022/11/16 01:18:59;;;;;;;27.30;16.67;;;8.50;99.90;;;;;;5024143;28;20213;-56
2022/11/16 01:21:26;;;;;;;26.87;16.80;;;8.50;99.90;;;;;;5021994;28;20192;-56
2022/11/16 01:23:55;;;;;;;24.87;16.67;;;8.50;99.90;;;;;;5023806;28;20230;-56
2022/11/16 01:26:23;;;;;;;23.57;16.37;;;8.50;99.90;;;;;;5020778;28;20214;-56
2022/11/16 01:28:50;;;;;;;25.73;16.90;;;8.50;99.90;;;;;;5019751;28;20294;-53
2022/11/16 01:31:16;;;;;;;25.00;17.17;;;8.40;99.90;;;;;;5020239;28;20259;-54
2022/11/16 01:33:44;;;;;;;25.90;17.60;;;8.40;99.90;;;;;;5011350;28;20228;-55
2022/11/16 01:36:24;;;;;;;24.80;16.90;;;8.40;99.90;;;;;;5018049;28;20746;-56
2022/11/16 01:38:52;;;;;;;25.23;16.27;;;8.40;99.90;;;;;;5023228;28;20435;-56
2022/11/16 01:41:26;;;;;;;26.73;17.13;;;8.50;99.90;;;;;;5022528;28;20206;-57
2022/11/16 01:43:58;;;;;;;27.10;16.57;;;8.40;99.90;;;;;;5016029;28;20224;-55
2022/11/16 01:46:31;;;;;;;22.90;16.40;;;8.40;99.90;;;;;;5020051;28;20639;-55
2022/11/16 01:49:02;;;;;;;24.63;16.63;;;8.40;99.90;;;;;;5008886;28;20202;-56
2022/11/16 01:51:30;;;;;;;26.10;16.53;;;8.40;99.90;;;;;;5021300;28;20290;-57
2022/11/16 01:53:59;;;;;;;24.90;16.83;;;8.30;99.90;;;;;;5023465;28;20688;-55
2022/11/16 01:56:29;;;;;;;26.80;16.63;;;8.30;99.90;;;;;;5022748;28;20191;-57
2022/11/16 01:59:10;;;;;;;25.33;17.07;;;8.30;99.90;;;;;;5017318;28;20696;-55
2022/11/16 02:01:38;;;;;;;26.43;16.77;;;8.30;99.90;;;;;;5033618;28;20188;-57
2022/11/16 02:04:05;;;;;;;26.43;15.77;;;8.30;99.90;;;;;;4996451;28;20763;-54
2022/11/16 02:06:48;;;;;;;29.00;17.83;;;8.20;99.90;;;;;;5018235;28;20196;-54
2022/11/16 02:09:53;;;;;;;24.97;16.37;;;8.20;99.90;;;;;;5005227;28;20257;-56
2022/11/16 02:12:46;;;;;;;25.73;16.53;;;8.20;99.90;;;;;;5021391;28;20203;-57
2022/11/16 02:15:27;;;;;;;28.70;17.50;;;8.20;99.90;;;;;;5015540;28;20565;-57
2022/11/16 02:18:17;;;;;;;31.57;17.40;;;8.20;99.90;;;;;;5011177;28;20311;-56
2022/11/16 02:20:57;;;;;;;25.87;18.07;;;8.20;99.90;;;;;;5011835;28;20204;-54
2022/11/16 02:24:00;;;;;;;29.83;18.33;;;8.20;99.90;;;;;;5020429;28;20219;-57
2022/11/16 02:27:11;;;;;;;34.70;20.03;;;8.20;99.90;;;;;;5022013;28;20634;-56
2022/11/16 02:29:43;;;;;;;29.10;18.27;;;8.10;99.90;;;;;;5020508;28;20192;-55
2022/11/16 02:32:15;;;;;;;28.70;17.47;;;8.10;99.90;;;;;;5016821;28;20212;-56
2022/11/16 02:34:47;;;;;;;33.40;19.10;;;8.10;99.90;;;;;;5003992;28;20228;-57
2022/11/16 02:37:19;;;;;;;29.67;18.30;;;8.10;99.90;;;;;;5023471;28;20265;-56
2022/11/16 02:39:51;;;;;;;39.47;19.50;;;8.10;99.90;;;;;;5020831;28;20273;-56
2022/11/16 02:42:23;;;;;;;31.47;18.50;;;8.10;99.90;;;;;;5021549;28;20599;-54
2022/11/16 02:44:55;;;;;;;33.70;19.20;;;8.00;99.90;;;;;;5021103;28;20226;-56
2022/11/16 02:47:24;;;;;;;35.53;19.40;;;8.00;99.90;;;;;;5015886;28;20204;-57
2022/11/16 02:49:57;;;;;;;39.70;20.30;;;8.00;99.90;;;;;;5006835;28;20212;-53
2022/11/16 02:52:27;;;;;;;32.07;16.50;;;8.00;99.90;;;;;;5020150;28;20215;-56
2022/11/16 02:54:54;;;;;;;35.50;19.63;;;8.00;99.90;;;;;;5021856;28;20315;-53
2022/11/16 02:57:34;;;;;;;31.90;18.23;;;7.90;99.90;;;;;;5022285;28;20607;-53
2022/11/16 03:00:05;;;;;;;33.90;18.20;;;7.90;99.90;;;;;;5009790;28;20581;-55
2022/11/16 03:02:44;;;;;;;30.60;17.20;;;7.90;99.90;;;;;;4998352;28;20927;-57
2022/11/16 03:05:15;;;;;;;32.77;18.80;;;8.00;99.90;;;;;;5013791;28;20260;-56
2022/11/16 03:07:56;;;;;;;31.87;17.80;;;8.00;99.90;;;;;;5014477;28;20210;-57
2022/11/16 03:13:22;;;;;;;38.33;18.60;;;7.90;99.90;;;;;;4959507;28;20208;-55
2022/11/16 03:15:53;;;;;;;30.50;18.33;;;7.90;99.90;;;;;;5012366;28;20435;-54
2022/11/16 03:18:25;;;;;;;33.83;17.70;;;7.90;99.90;;;;;;5013977;28;20676;-56
2022/11/16 03:20:59;;;;;;;34.83;17.13;;;7.90;99.90;;;;;;5021218;28;20231;-57
2022/11/16 03:23:26;;;;;;;30.37;16.93;;;7.90;99.90;;;;;;5004594;28;20286;-56
2022/11/16 03:25:56;;;;;;;36.03;18.90;;;7.90;99.90;;;;;;5021114;28;20203;-56
2022/11/16 03:28:28;;;;;;;32.10;17.30;;;7.90;99.90;;;;;;5015358;28;20200;-53
2022/11/16 03:31:08;;;;;;;32.87;17.83;;;7.80;99.90;;;;;;5023587;28;20275;-54
2022/11/16 03:33:39;;;;;;;34.03;17.87;;;7.90;99.90;;;;;;5011635;28;20199;-49
2022/11/16 03:36:11;;;;;;;32.03;16.27;;;7.80;99.90;;;;;;5022305;28;20207;-54
2022/11/16 03:38:40;;;;;;;35.10;18.60;;;7.90;99.90;;;;;;5004286;28;20212;-55
2022/11/16 03:41:09;;;;;;;32.03;18.23;;;7.90;99.90;;;;;;5021705;28;20216;-56
2022/11/16 03:43:38;;;;;;;32.73;17.27;;;7.80;99.90;;;;;;5017509;28;21790;-55
2022/11/16 03:46:08;;;;;;;32.27;17.10;;;7.80;99.90;;;;;;5021955;28;20203;-56
2022/11/16 03:48:36;;;;;;;30.77;16.93;;;7.80;99.90;;;;;;5010935;28;20281;-57
2022/11/16 03:51:10;;;;;;;32.47;17.37;;;7.80;99.90;;;;;;5023052;28;20196;-57
2022/11/16 03:53:39;;;;;;;29.37;16.43;;;7.80;99.90;;;;;;5003082;28;20897;-55
2022/11/16 03:56:07;;;;;;;28.17;17.10;;;7.80;99.90;;;;;;5021659;28;20269;-54
2022/11/16 03:58:34;;;;;;;30.63;17.93;;;7.80;99.90;;;;;;5019160;28;20215;-58
2022/11/16 04:01:03;;;;;;;33.77;18.67;;;7.80;99.90;;;;;;5022043;28;20204;-58
2022/11/16 04:03:30;;;;;;;34.73;19.93;;;7.80;99.90;;;;;;5019365;28;20196;-57
2022/11/16 04:25:34;;;;;;;35.80;20.07;;;7.70;99.90;;;;;;5003217;28;20789;-56
2022/11/16 04:28:15;;;;;;;34.00;18.13;;;7.70;99.90;;;;;;5023000;28;20193;-52
2022/11/16 04:39:19;;;;;;;32.07;17.90;;;7.70;99.90;;;;;;5019718;28;20568;-57
2022/11/16 04:47:16;;;;;;;33.73;18.07;;;7.60;99.90;;;;;;5019142;28;20234;-56
2022/11/16 04:49:42;;;;;;;27.97;17.03;;;7.60;99.90;;;;;;5017756;28;20215;-56
2022/11/16 04:52:11;;;;;;;36.30;18.97;;;7.60;99.90;;;;;;5015059;28;20208;-56
2022/11/16 04:54:39;;;;;;;31.90;18.57;;;7.60;99.90;;;;;;5017658;28;20488;-54
2022/11/16 04:57:06;;;;;;;34.17;18.10;;;7.60;99.90;;;;;;5007444;28;20200;-55
2022/11/16 04:59:34;;;;;;;34.87;18.83;;;7.50;99.90;;;;;;5020745;28;21224;-53
2022/11/16 05:02:10;;;;;;;35.70;19.10;;;7.50;99.90;;;;;;5015777;28;20227;-56
2022/11/16 05:04:45;;;;;;;35.47;18.87;;;7.60;99.90;;;;;;5022674;28;20315;-54
2022/11/16 05:07:14;;;;;;;31.07;17.33;;;7.60;99.90;;;;;;5011739;28;20296;-55
2022/11/16 05:09:45;;;;;;;33.73;18.20;;;7.60;99.90;;;;;;5022646;28;20487;-57
2022/11/16 05:12:15;;;;;;;34.17;18.63;;;7.50;99.90;;;;;;4989160;28;23132;-51
2022/11/16 05:14:44;;;;;;;31.87;18.30;;;7.50;99.90;;;;;;5022370;28;20226;-52
2022/11/16 05:17:13;;;;;;;31.63;17.40;;;7.50;99.90;;;;;;5014872;28;20542;-55
2022/11/16 05:22:28;;;;;;;34.47;17.67;;;7.50;99.90;;;;;;5017359;28;20199;-56
2022/11/16 05:24:55;;;;;;;39.47;19.07;;;7.50;99.90;;;;;;5022181;28;20227;-55
2022/11/16 05:27:24;;;;;;;32.27;17.97;;;7.50;99.90;;;;;;5008778;28;20331;-54
2022/11/16 05:29:51;;;;;;;31.30;16.70;;;7.50;99.90;;;;;;5011284;28;20211;-54
2022/11/16 05:32:22;;;;;;;32.77;17.70;;;7.50;99.90;;;;;;5006512;28;20192;-55
2022/11/16 05:34:50;;;;;;;34.47;18.10;;;7.40;99.90;;;;;;5007506;28;20228;-55
2022/11/16 05:37:19;;;;;;;31.60;17.23;;;7.40;99.90;;;;;;5021952;28;20196;-54
2022/11/16 05:39:48;;;;;;;34.77;18.53;;;7.40;99.90;;;;;;5017156;28;20215;-55
2022/11/16 05:42:15;;;;;;;28.93;17.27;;;7.40;99.90;;;;;;5019251;28;20277;-54
2022/11/16 05:44:43;;;;;;;32.20;16.90;;;7.40;99.90;;;;;;5003568;28;20225;-54
2022/11/16 05:47:10;;;;;;;37.97;19.07;;;7.40;99.90;;;;;;5012637;28;20228;-55
2022/11/16 05:49:37;;;;;;;33.33;17.83;;;7.30;99.90;;;;;;5018006;28;20741;-53
2022/11/16 05:52:04;;;;;;;36.60;18.10;;;7.30;99.90;;;;;;5014481;28;20684;-55
2022/11/16 05:54:31;;;;;;;32.37;16.77;;;7.30;99.90;;;;;;5007725;28;20235;-56
2022/11/16 05:56:59;;;;;;;31.47;17.73;;;7.30;99.90;;;;;;5019556;28;20208;-53
2022/11/16 05:59:26;;;;;;;30.93;17.27;;;7.30;99.90;;;;;;5002787;28;20227;-55
2022/11/16 06:01:56;;;;;;;31.20;18.73;;;7.30;99.90;;;;;;5010662;28;20214;-53
2022/11/16 06:04:24;;;;;;;38.20;20.70;;;7.30;99.90;;;;;;5002473;28;20238;-54
2022/11/16 06:06:53;;;;;;;30.80;17.27;;;7.30;99.90;;;;;;5013277;28;20295;-56
2022/11/16 06:09:19;;;;;;;36.33;18.83;;;7.30;99.90;;;;;;5014273;28;20256;-55
2022/11/16 06:11:48;;;;;;;34.50;18.60;;;7.30;99.90;;;;;;5022672;28;20588;-56
2022/11/16 06:14:17;;;;;;;34.20;17.53;;;7.30;99.90;;;;;;5020435;28;20458;-54
2022/11/16 06:16:44;;;;;;;36.50;18.43;;;7.30;99.90;;;;;;5008715;28;20212;-53
2022/11/16 06:19:11;;;;;;;32.43;16.97;;;7.30;99.90;;;;;;5010532;28;21082;-56
2022/11/16 06:21:38;;;;;;;30.30;17.17;;;7.30;99.90;;;;;;5016556;28;20192;-52
2022/11/16 06:24:09;;;;;;;28.87;16.63;;;7.30;99.90;;;;;;5017681;28;20326;-56
2022/11/16 06:26:36;;;;;;;30.53;16.97;;;7.30;99.90;;;;;;5012793;28;20200;-54
2022/11/16 06:29:04;;;;;;;28.80;17.13;;;7.30;99.90;;;;;;5016218;28;20196;-56
2022/11/16 06:31:34;;;;;;;34.87;18.33;;;7.30;99.90;;;;;;5004492;28;20636;-55
2022/11/16 06:34:02;;;;;;;34.80;17.07;;;7.30;99.90;;;;;;5007198;28;20417;-55
2022/11/16 06:36:29;;;;;;;30.93;17.40;;;7.30;99.90;;;;;;5011358;28;20283;-52
2022/11/16 06:38:59;;;;;;;29.60;17.60;;;7.30;99.90;;;;;;5005328;28;20212;-55
2022/11/16 06:41:28;;;;;;;34.03;18.23;;;7.20;99.90;;;;;;5009515;28;20207;-50
2022/11/16 06:43:55;;;;;;;32.67;18.13;;;7.30;99.90;;;;;;5015137;28;20224;-56
2022/11/16 06:46:26;;;;;;;32.27;18.40;;;7.20;99.90;;;;;;5009499;28;20200;-55
2022/11/16 06:48:56;;;;;;;27.63;16.77;;;7.20;99.90;;;;;;5020723;28;20563;-53
2022/11/16 06:51:22;;;;;;;31.10;17.27;;;7.30;99.90;;;;;;5007838;28;20219;-56
2022/11/16 06:53:49;;;;;;;29.57;17.60;;;7.30;99.90;;;;;;5004009;28;20229;-56
2022/11/16 06:56:18;;;;;;;35.07;17.83;;;7.30;99.90;;;;;;5012510;28;20303;-58
2022/11/16 06:58:52;;;;;;;31.20;18.17;;;7.30;99.90;;;;;;4998848;28;20270;-57
2022/11/16 07:01:19;;;;;;;29.93;18.77;;;7.30;99.90;;;;;;5011576;28;20251;-54
2022/11/16 07:03:48;;;;;;;30.67;18.43;;;7.30;99.90;;;;;;5001931;28;20230;-57
2022/11/16 07:06:17;;;;;;;31.80;18.20;;;7.30;99.90;;;;;;5012066;28;21064;-54
2022/11/16 07:08:45;;;;;;;33.73;18.40;;;7.30;99.90;;;;;;5023651;28;20200;-56
2022/11/16 07:11:15;;;;;;;30.23;17.77;;;7.40;99.90;;;;;;5006028;28;20204;-55
2022/11/16 07:13:41;;;;;;;32.13;18.47;;;7.30;99.90;;;;;;5012629;28;20228;-55
2022/11/16 07:16:11;;;;;;;32.40;18.33;;;7.40;99.90;;;;;;5013128;28;20215;-55
2022/11/16 07:18:43;;;;;;;29.77;17.07;;;7.40;99.90;;;;;;5008980;28;20715;-50
2022/11/16 07:21:12;;;;;;;27.97;17.63;;;7.40;99.90;;;;;;5001292;28;20216;-53
2022/11/16 07:23:40;;;;;;;27.27;17.33;;;7.40;99.90;;;;;;5005375;28;20212;-51
2022/11/16 07:26:11;;;;;;;25.27;17.33;;;7.40;99.90;;;;;;5014034;28;20262;-54
2022/11/16 07:29:05;;;;;;;28.20;16.73;;;7.40;99.90;;;;;;5013103;28;20732;-50
2022/11/16 07:31:34;;;;;;;29.27;17.83;;;7.40;99.90;;;;;;5009954;28;20200;-52
2022/11/16 07:34:23;;;;;;;28.37;16.67;;;7.40;99.90;;;;;;4999887;28;20231;-54
2022/11/16 07:37:01;;;;;;;31.87;16.77;;;7.40;99.90;;;;;;5009164;28;20764;-48
2022/11/16 07:39:29;;;;;;;27.83;16.57;;;7.50;99.90;;;;;;5017461;28;20794;-56
2022/11/16 07:41:56;;;;;;;31.47;18.03;;;7.50;99.90;;;;;;5017997;28;20192;-55
2022/11/16 07:44:27;;;;;;;32.50;18.73;;;7.50;99.90;;;;;;4998738;28;20727;-53
2022/11/16 07:47:05;;;;;;;32.83;17.33;;;7.50;99.90;;;;;;5014142;28;20684;-51
2022/11/16 07:49:34;;;;;;;31.00;18.30;;;7.50;99.90;;;;;;4987926;28;20220;-52
2022/11/16 07:52:09;;;;;;;28.80;17.60;;;7.50;99.90;;;;;;5014832;28;20204;-52
2022/11/16 07:54:56;;;;;;;30.80;17.67;;;7.50;99.90;;;;;;5011822;28;20220;-50
2022/11/16 07:57:26;;;;;;;31.13;17.07;;;7.50;99.90;;;;;;5007750;28;20207;-54
2022/11/16 07:59:55;;;;;;;29.40;18.50;;;7.50;99.90;;;;;;5010198;28;20584;-50
2022/11/16 08:02:22;;;;;;;31.57;18.53;;;7.50;99.90;;;;;;5013550;28;20200;-54
2022/11/16 08:04:50;;;;;;;28.87;18.57;;;7.50;99.90;;;;;;4999724;28;20310;-54
2022/11/16 08:07:22;;;;;;;32.97;19.27;;;7.50;99.90;;;;;;5010177;28;20571;-53
2022/11/16 08:09:54;;;;;;;29.87;18.57;;;7.50;99.90;;;;;;5000161;28;20219;-51
2022/11/16 08:12:23;;;;;;;33.03;19.77;;;7.50;99.90;;;;;;5011232;28;20927;-50
2022/11/16 08:14:50;;;;;;;31.90;18.03;;;7.50;99.90;;;;;;4990790;28;20228;-53
2022/11/16 08:17:17;;;;;;;31.20;17.80;;;7.50;99.90;;;;;;5012705;28;20661;-53
2022/11/16 08:19:44;;;;;;;34.70;18.93;;;7.50;99.90;;;;;;4998253;28;24723;-52
2022/11/16 08:22:14;;;;;;;28.90;16.30;;;7.50;99.90;;;;;;5004930;28;20200;-51
2022/11/16 08:24:42;;;;;;;29.20;18.40;;;7.50;99.90;;;;;;4994181;28;20843;-52
2022/11/16 08:27:11;;;;;;;29.60;17.93;;;7.50;99.90;;;;;;5016971;28;20204;-50
2022/11/16 08:29:40;;;;;;;34.27;20.30;;;7.50;99.90;;;;;;5001080;28;20230;-49
2022/11/16 08:32:08;;;;;;;30.23;18.17;;;7.50;99.90;;;;;;5009163;28;20214;-46
2022/11/16 08:34:36;;;;;;;30.73;18.47;;;7.50;99.90;;;;;;5014822;28;20278;-49
2022/11/16 08:37:04;;;;;;;28.33;17.47;;;7.50;99.90;;;;;;4990239;28;20336;-46
2022/11/16 08:39:43;;;;;;;29.80;18.27;;;7.50;99.90;;;;;;5005395;28;20219;-50
2022/11/16 08:42:10;;;;;;;32.13;18.03;;;7.50;99.90;;;;;;5014347;28;20718;-48
2022/11/16 08:44:40;;;;;;;33.43;17.90;;;7.50;99.90;;;;;;5000005;28;20318;-48
2022/11/16 08:47:12;;;;;;;30.03;17.47;;;7.40;99.90;;;;;;4997974;28;20286;-49
2022/11/16 08:49:45;;;;;;;29.60;18.67;;;7.50;99.90;;;;;;5014595;28;20200;-51
2022/11/16 08:52:12;;;;;;;30.63;18.33;;;7.40;99.90;;;;;;4979813;28;20224;-46
2022/11/16 08:54:41;;;;;;;29.17;17.43;;;7.40;99.90;;;;;;5007958;28;20243;-48
2022/11/16 08:57:08;;;;;;;32.80;18.20;;;7.50;99.90;;;;;;5013903;28;20292;-50
2022/11/16 08:59:37;;;;;;;28.63;16.80;;;7.50;99.90;;;;;;5017788;28;20224;-46
2022/11/16 09:02:10;;;;;;;31.57;18.43;;;7.50;99.90;;;;;;5004315;28;20218;-50
2022/11/16 09:04:38;;;;;;;30.70;18.47;;;7.40;99.90;;;;;;5018292;28;20305;-46
2022/11/16 09:07:04;;;;;;;30.90;18.17;;;7.50;99.90;;;;;;4995374;28;20220;-48
2022/11/16 09:09:31;;;;;;;33.37;18.13;;;7.40;99.90;;;;;;5011368;28;20192;-49
2022/11/16 09:11:58;;;;;;;32.87;18.27;;;7.50;99.90;;;;;;5011410;28;20202;-49
2022/11/16 09:14:27;;;;;;;31.13;18.27;;;7.50;99.90;;;;;;5014866;28;20200;-49
2022/11/16 09:16:54;;;;;;;34.10;19.10;;;7.50;99.90;;;;;;5016861;28;20680;-48
2022/11/16 09:19:23;;;;;;;31.07;18.03;;;7.50;99.90;;;;;;5012441;28;20219;-47
2022/11/16 09:21:50;;;;;;;34.27;18.63;;;7.50;99.90;;;;;;5023609;28;20196;-46
2022/11/16 09:24:16;;;;;;;36.87;20.47;;;7.50;99.90;;;;;;4999758;28;20247;-45
2022/11/16 09:26:43;;;;;;;39.83;19.10;;;7.40;99.90;;;;;;5012731;28;20204;-47
2022/11/16 09:29:12;;;;;;;33.23;18.83;;;7.40;99.90;;;;;;5020164;28;20279;-48
2022/11/16 09:31:40;;;;;;;33.97;19.20;;;7.40;99.90;;;;;;5012913;28;20215;-52
2022/11/16 09:34:07;;;;;;;35.77;20.13;;;7.40;99.90;;;;;;5017704;28;20228;-47
2022/11/16 09:36:35;;;;;;;36.33;20.20;;;7.40;99.90;;;;;;5016159;28;20299;-52
2022/11/16 09:39:03;;;;;;;33.73;19.87;;;7.40;99.90;;;;;;5001781;28;20212;-47
2022/11/16 09:41:43;;;;;;;34.23;18.70;;;7.40;99.90;;;;;;5020771;28;20200;-49
2022/11/16 09:44:24;;;;;;;36.87;18.70;;;7.40;99.90;;;;;;5011624;28;20582;-45
2022/11/16 09:46:56;;;;;;;35.17;19.30;;;7.50;99.90;;;;;;5015984;28;20799;-49
2022/11/16 09:49:25;;;;;;;37.97;19.77;;;7.50;99.90;;;;;;5018874;28;20216;-49
2022/11/16 09:52:18;;;;;;;38.73;20.47;;;7.50;99.90;;;;;;5007662;28;20707;-45
2022/11/16 09:54:47;;;;;;;38.43;19.70;;;7.50;99.90;;;;;;5005417;28;20215;-47
2022/11/16 09:57:18;;;;;;;34.33;19.83;;;7.50;99.90;;;;;;5020842;28;20200;-45
2022/11/16 09:59:48;;;;;;;36.73;19.50;;;7.50;99.90;;;;;;5009756;28;20227;-47
2022/11/16 10:02:19;;;;;;;36.67;19.33;;;7.50;99.90;;;;;;5015439;28;20200;-51
2022/11/16 10:04:53;;;;;;;38.23;20.10;;;7.50;99.90;;;;;;5008311;28;20212;-47
2022/11/16 10:07:25;;;;;;;42.93;21.40;;;7.40;99.90;;;;;;4999649;28;20932;-47
2022/11/16 10:09:52;;;;;;;40.83;19.10;;;7.50;99.90;;;;;;5008232;28;20208;-49
2022/11/16 10:12:26;;;;;;;36.40;19.47;;;7.40;99.90;;;;;;5010658;28;20392;-46
2022/11/16 10:15:22;;;;;;;36.17;18.47;;;7.40;99.90;;;;;;5013859;28;20231;-52
2022/11/16 10:18:01;;;;;;;41.70;20.73;;;7.50;99.90;;;;;;5021746;28;20203;-49
2022/11/16 10:20:48;;;;;;;39.27;19.93;;;7.50;99.90;;;;;;5014619;28;20216;-48
2022/11/16 10:23:27;;;;;;;47.70;20.97;;;7.50;99.90;;;;;;5012746;28;20200;-45
2022/11/16 10:25:59;;;;;;;35.17;18.20;;;7.50;99.90;;;;;;5005074;28;20212;-51
2022/11/16 10:28:50;;;;;;;37.23;18.70;;;7.50;99.90;;;;;;5011067;28;20216;-47
2022/11/16 10:31:28;;;;;;;44.93;19.53;;;7.50;99.90;;;;;;5021538;28;20279;-48
2022/11/16 10:33:56;;;;;;;37.40;19.40;;;7.40;99.90;;;;;;5015254;28;20236;-52
2022/11/16 10:36:26;;;;;;;43.47;20.33;;;7.40;99.90;;;;;;5011088;28;20733;-46
2022/11/16 10:38:56;;;;;;;41.17;20.10;;;7.40;99.90;;;;;;5015253;28;20859;-51
2022/11/16 10:41:30;;;;;;;40.33;21.97;;;7.40;99.90;;;;;;5007697;28;20966;-45
2022/11/16 10:43:58;;;;;;;43.93;21.73;;;7.40;99.90;;;;;;5017010;28;20235;-47
2022/11/16 10:46:28;;;;;;;42.23;20.80;;;7.40;99.90;;;;;;5014334;28;20218;-48
2022/11/16 10:49:01;;;;;;;41.43;21.23;;;7.40;99.90;;;;;;5006122;28;20683;-46
2022/11/16 10:51:28;;;;;;;39.10;20.77;;;7.40;99.90;;;;;;5012738;28;20212;-52
2022/11/16 10:53:57;;;;;;;45.33;20.73;;;7.40;99.90;;;;;;5009899;28;20335;-45
2022/11/16 10:56:28;;;;;;;46.63;20.67;;;7.40;99.90;;;;;;5008477;28;20208;-48
2022/11/16 10:58:58;;;;;;;45.50;20.27;;;7.40;99.90;;;;;;5018483;28;20724;-47
2022/11/16 11:01:36;;;;;;;49.67;23.80;;;7.40;99.90;;;;;;5013184;28;20216;-48
2022/11/16 11:04:23;;;;;;;47.03;21.30;;;7.40;99.90;;;;;;5009585;28;20235;-50
2022/11/16 11:06:51;;;;;;;44.33;20.30;;;7.50;99.90;;;;;;5009739;28;20260;-46
2022/11/16 11:09:27;;;;;;;40.57;19.77;;;7.40;99.90;;;;;;5011644;28;20680;-46
2022/11/16 11:14:59;;;;;;;41.80;20.07;;;7.50;99.90;;;;;;5005629;28;20773;-49
2022/11/16 11:17:26;;;;;;;47.50;20.70;;;7.50;99.90;;;;;;5013562;28;20734;-49
2022/11/16 11:19:57;;;;;;;45.27;21.47;;;7.50;99.90;;;;;;5009342;28;20227;-48
2022/11/16 11:22:24;;;;;;;44.57;20.40;;;7.50;99.90;;;;;;5006777;28;20610;-47
2022/11/16 11:24:53;;;;;;;43.67;20.50;;;7.50;99.90;;;;;;5015333;28;20223;-46
2022/11/16 11:27:27;;;;;;;45.63;21.50;;;7.50;99.90;;;;;;4998772;28;20215;-49
2022/11/16 11:29:57;;;;;;;43.07;21.73;;;7.50;99.90;;;;;;5017840;28;20199;-46
2022/11/16 11:32:28;;;;;;;44.43;19.60;;;7.50;99.90;;;;;;5017241;28;20204;-50
2022/11/16 11:34:58;;;;;;;43.63;19.70;;;7.50;99.90;;;;;;5010403;28;20235;-49
2022/11/16 11:37:29;;;;;;;39.73;21.40;;;7.50;99.90;;;;;;5003177;28;20231;-46
2022/11/16 11:40:23;;;;;;;44.60;22.23;;;7.50;99.90;;;;;;5012476;28;20232;-51
2022/11/16 11:42:56;;;;;;;41.00;20.13;;;7.60;99.90;;;;;;4987464;28;20224;-48
2022/11/16 11:45:30;;;;;;;41.63;19.53;;;7.60;99.90;;;;;;5013586;28;20222;-48
2022/11/16 11:48:01;;;;;;;44.93;21.07;;;7.60;99.90;;;;;;5021056;28;20259;-47
2022/11/16 11:50:40;;;;;;;49.63;22.37;;;7.60;99.90;;;;;;5007291;28;20196;-48
2022/11/16 11:53:15;;;;;;;41.60;20.00;;;7.60;99.90;;;;;;5007335;28;20219;-46
2022/11/16 11:55:43;;;;;;;41.10;21.37;;;7.60;99.90;;;;;;5001406;28;20235;-47
2022/11/16 11:58:15;;;;;;;44.23;20.63;;;7.70;99.90;;;;;;4994981;28;20515;-45
2022/11/16 12:00:49;;;;;;;45.30;21.57;;;7.70;99.90;;;;;;5014659;28;20216;-51
2022/11/16 12:03:43;;;;;;;43.30;18.77;;;7.70;99.90;;;;;;5008383;28;20223;-45
2022/11/16 12:06:18;;;;;;;44.90;20.97;;;7.70;99.90;;;;;;5021822;28;20204;-46
2022/11/16 12:09:07;;;;;;;43.43;21.80;;;7.70;99.90;;;;;;5016506;28;20210;-46
2022/11/16 12:11:51;;;;;;;46.43;20.67;;;7.70;99.90;;;;;;5023027;28;20710;-49
2022/11/16 12:14:30;;;;;;;43.37;20.97;;;7.70;99.90;;;;;;5011142;28;20302;-46
2022/11/16 12:17:04;;;;;;;52.53;21.60;;;7.70;99.90;;;;;;5015932;28;20911;-45
2022/11/16 12:19:45;;;;;;;47.23;21.10;;;7.80;99.90;;;;;;5026015;28;20206;-46
2022/11/16 12:22:23;;;;;;;48.53;22.97;;;7.80;99.90;;;;;;5019142;28;20231;-45
2022/11/16 12:25:04;;;;;;;49.57;22.00;;;7.80;99.90;;;;;;5016849;28;20228;-48
2022/11/16 12:27:41;;;;;;;48.00;22.13;;;7.80;99.90;;;;;;4997415;28;20213;-45
2022/11/16 12:30:11;;;;;;;52.83;23.07;;;7.90;99.90;;;;;;5008060;28;20243;-48
2022/11/16 12:32:50;;;;;;;50.90;23.07;;;7.90;99.90;;;;;;5009932;28;20192;-47
2022/11/16 12:35:36;;;;;;;43.00;21.93;;;7.90;99.90;;;;;;5014642;28;20235;-48
2022/11/16 12:38:20;;;;;;;48.00;21.77;;;7.90;99.90;;;;;;5015379;28;20250;-50
2022/11/16 12:41:00;;;;;;;46.60;21.63;;;7.90;99.90;;;;;;5017936;28;20234;-51
2022/11/16 12:43:36;;;;;;;52.13;23.60;;;7.90;99.90;;;;;;5012357;28;20204;-48
2022/11/16 12:46:13;;;;;;;51.10;22.93;;;7.90;99.90;;;;;;5010627;28;21024;-49
2022/11/16 12:48:58;;;;;;;50.10;21.57;;;7.90;99.90;;;;;;5012572;28;20232;-47
2022/11/16 12:51:44;;;;;;;46.10;21.77;;;7.90;99.90;;;;;;5017614;28;20207;-48
2022/11/16 12:54:56;;;;;;;44.47;21.30;;;7.90;99.90;;;;;;5016586;28;20239;-48
2022/11/16 12:57:29;;;;;;;46.03;22.07;;;7.90;99.90;;;;;;5017516;28;20270;-47
2022/11/16 13:00:06;;;;;;;53.07;22.80;;;7.90;99.90;;;;;;4995691;28;22818;-49
2022/11/16 13:02:53;;;;;;;48.17;21.80;;;7.90;99.90;;;;;;5015518;28;20207;-47
2022/11/16 13:05:22;;;;;;;47.97;20.77;;;7.90;99.90;;;;;;5017111;28;20236;-45
2022/11/16 13:07:53;;;;;;;46.37;22.60;;;7.90;99.90;;;;;;5017429;28;20279;-50
2022/11/16 13:10:27;;;;;;;50.10;21.10;;;7.90;99.90;;;;;;5025088;28;20196;-45
2022/11/16 13:12:57;;;;;;;56.73;22.80;;;7.90;99.90;;;;;;5007626;28;20603;-50
2022/11/16 13:15:33;;;;;;;50.50;21.83;;;7.90;99.90;;;;;;4999340;28;20224;-46
2022/11/16 13:18:03;;;;;;;41.27;20.13;;;7.90;99.90;;;;;;5006871;28;20200;-46
2022/11/16 13:20:37;;;;;;;46.90;21.47;;;7.90;99.90;;;;;;5015076;28;20227;-48
2022/11/16 13:23:07;;;;;;;48.93;21.53;;;7.90;99.90;;;;;;5009017;28;20262;-45
2022/11/16 13:25:43;;;;;;;51.70;22.30;;;7.90;99.90;;;;;;5018199;28;20265;-49
2022/11/16 13:28:17;;;;;;;45.47;21.40;;;8.00;99.90;;;;;;5006203;28;20210;-46
2022/11/16 13:30:55;;;;;;;48.77;22.67;;;7.90;99.90;;;;;;5003690;28;20235;-52
2022/11/16 13:33:33;;;;;;;51.67;22.37;;;8.00;99.90;;;;;;5010187;28;20204;-49
2022/11/16 13:36:44;;;;;;;41.23;20.83;;;7.90;99.90;;;;;;5005632;28;20850;-47
2022/11/16 13:39:13;;;;;;;36.47;19.10;;;7.90;99.90;;;;;;5012392;28;20265;-46
2022/11/16 13:41:42;;;;;;;42.17;20.20;;;7.90;99.90;;;;;;5012947;28;20311;-49
2022/11/16 13:44:30;;;;;;;37.57;19.80;;;7.80;99.90;;;;;;5000530;28;20488;-46
2022/11/16 13:47:03;;;;;;;44.20;21.77;;;7.80;99.90;;;;;;4999235;28;20214;-46